createdAt,value
2018-10-17T00:00:11.541Z,19.97
2018-10-17T00:02:40.313Z,25.03
2018-10-17T00:05:09.200Z,16.43
2018-10-17T00:07:37.861Z,24.57
2018-10-17T00:10:07.368Z,21.93
2018-10-17T00:12:36.054Z,21.40
2018-10-17T00:15:04.535Z,18.40
2018-10-17T00:17:32.905Z,24.70
2018-10-17T00:20:01.269Z,27.67
2018-10-17T00:22:29.642Z,22.53
2018-10-17T00:24:58.025Z,23.13
2018-10-17T00:27:26.721Z,25.73
2018-10-17T00:29:55.112Z,29.23
2018-10-17T00:32:23.503Z,28.90
2018-10-17T00:34:51.886Z,30.60
2018-10-17T00:37:20.321Z,34.70
2018-10-17T00:39:48.714Z,32.83
2018-10-17T00:42:17.069Z,37.90
2018-10-17T00:44:45.423Z,32.30
2018-10-17T00:47:13.855Z,35.57
2018-10-17T00:49:42.193Z,39.47
2018-10-17T00:52:10.553Z,37.30
2018-10-17T00:54:38.927Z,37.03
2018-10-17T00:57:07.451Z,44.80
2018-10-17T00:59:35.816Z,45.30
2018-10-17T01:02:04.264Z,44.80
2018-10-17T01:04:33.103Z,47.10
2018-10-17T01:07:01.538Z,54.47
2018-10-17T01:09:29.906Z,39.80
2018-10-17T01:11:58.270Z,44.30
2018-10-17T01:14:26.677Z,34.20
2018-10-17T01:16:55.069Z,50.63
2018-10-17T01:19:23.424Z,31.13
2018-10-17T01:21:51.783Z,36.90
2018-10-17T01:24:20.175Z,28.53
2018-10-17T01:26:48.526Z,28.60
2018-10-17T01:29:16.990Z,28.83
2018-10-17T01:31:45.326Z,33.27
2018-10-17T01:34:13.670Z,33.77
2018-10-17T01:36:42.042Z,30.27
2018-10-17T01:39:11.202Z,36.80
2018-10-17T01:41:39.663Z,32.20
2018-10-17T01:44:08.316Z,36.20
2018-10-17T01:46:36.950Z,24.90
2018-10-17T01:49:05.869Z,29.60
2018-10-17T01:51:34.207Z,30.63
2018-10-17T01:54:02.584Z,32.17
2018-10-17T01:56:30.932Z,32.17
2018-10-17T01:58:59.350Z,39.13
2018-10-17T02:01:28.046Z,41.80
2018-10-17T02:03:56.438Z,67.10
2018-10-17T02:06:24.791Z,58.10
2018-10-17T02:08:53.164Z,48.47
2018-10-17T02:11:21.527Z,54.43
2018-10-17T02:13:49.878Z,47.03
2018-10-17T02:16:18.251Z,51.50
2018-10-17T02:18:46.606Z,45.20
2018-10-17T02:21:14.957Z,46.77
2018-10-17T02:23:43.322Z,42.13
2018-10-17T02:26:11.694Z,45.33
2018-10-17T02:28:40.063Z,44.20
2018-10-17T02:31:08.658Z,44.50
2018-10-17T02:33:36.963Z,36.37
2018-10-17T02:36:05.645Z,40.20
2018-10-17T02:38:34.000Z,41.37
2018-10-17T02:41:02.437Z,46.93
2018-10-17T02:43:30.779Z,36.93
2018-10-17T02:45:59.146Z,43.73
2018-10-17T02:48:27.508Z,37.90
2018-10-17T02:50:55.860Z,36.43
2018-10-17T02:53:24.294Z,41.70
2018-10-17T02:55:52.651Z,36.73
2018-10-17T02:58:21.014Z,33.67
2018-10-17T03:00:49.413Z,40.95
2018-10-17T03:03:17.773Z,31.75
2018-10-17T03:05:46.140Z,28.50
2018-10-17T03:08:14.889Z,39.63
2018-10-17T03:10:43.257Z,28.77
2018-10-17T03:13:11.705Z,33.83
2018-10-17T03:15:40.005Z,34.27
2018-10-17T03:18:08.375Z,34.55
2018-10-17T03:20:36.743Z,37.30
2018-10-17T03:23:05.735Z,30.37
2018-10-17T03:25:34.001Z,34.33
2018-10-17T03:28:02.506Z,37.58
2018-10-17T03:30:30.950Z,43.07
2018-10-17T03:32:59.303Z,35.77
2018-10-17T03:35:27.663Z,31.40
2018-10-17T03:37:56.041Z,31.07
2018-10-17T03:40:24.412Z,37.73
2018-10-17T03:42:52.802Z,40.55
2018-10-17T03:45:21.203Z,39.27
2018-10-17T03:47:49.564Z,33.63
2018-10-17T03:50:17.917Z,34.92
2018-10-17T03:52:46.323Z,35.58
2018-10-17T03:55:14.736Z,28.30
2018-10-17T03:57:43.093Z,42.47
2018-10-17T04:00:11.483Z,35.08
2018-10-17T04:02:39.840Z,36.77
2018-10-17T04:05:08.650Z,35.03
2018-10-17T04:07:36.958Z,42.50
2018-10-17T04:10:05.835Z,31.65
2018-10-17T04:12:34.209Z,36.53
2018-10-17T04:15:02.609Z,31.50
2018-10-17T04:17:30.984Z,45.97
2018-10-17T04:19:59.343Z,30.43
2018-10-17T04:22:27.798Z,29.57
2018-10-17T04:24:56.506Z,34.70
2018-10-17T04:27:24.877Z,29.52
2018-10-17T04:29:53.255Z,33.43
2018-10-17T04:32:21.619Z,35.38
2018-10-17T04:34:49.998Z,30.68
2018-10-17T04:37:18.784Z,36.30
2018-10-17T04:39:47.108Z,34.17
2018-10-17T04:42:15.459Z,36.40
2018-10-17T04:44:44.172Z,27.20
2018-10-17T04:47:12.619Z,27.60
2018-10-17T04:49:41.252Z,33.47
2018-10-17T04:52:10.231Z,30.23
2018-10-17T04:54:38.592Z,28.80
2018-10-17T04:57:07.275Z,35.08
2018-10-17T04:59:35.667Z,27.90
2018-10-17T05:02:04.074Z,39.80
2018-10-17T05:04:32.492Z,31.13
2018-10-17T05:07:01.179Z,66.53
2018-10-17T05:09:29.814Z,90.17
2018-10-17T05:11:58.191Z,74.77
2018-10-17T05:14:26.565Z,62.08
2018-10-17T05:16:54.945Z,64.72
2018-10-17T05:19:23.341Z,58.57
2018-10-17T05:21:51.736Z,48.63
2018-10-17T05:24:20.386Z,37.45
2018-10-17T05:26:48.780Z,55.15
2018-10-17T05:29:17.184Z,30.15
2018-10-17T05:31:45.910Z,32.95
2018-10-17T05:34:14.508Z,33.05
2018-10-17T05:36:43.156Z,35.20
2018-10-17T05:39:11.620Z,50.55
2018-10-17T05:41:39.986Z,29.63
2018-10-17T05:44:08.375Z,39.30
2018-10-17T05:46:37.059Z,34.65
2018-10-17T05:49:06.200Z,32.05
2018-10-17T05:51:34.725Z,28.70
2018-10-17T05:54:03.098Z,36.55
2018-10-17T05:56:31.467Z,33.73
2018-10-17T05:58:59.865Z,29.70
2018-10-17T06:01:28.611Z,34.58
2018-10-17T06:03:56.920Z,36.48
2018-10-17T06:06:25.428Z,37.20
2018-10-17T06:08:53.790Z,41.92
2018-10-17T06:11:22.160Z,34.33
2018-10-17T06:13:50.796Z,30.90
2018-10-17T06:16:19.197Z,37.25
2018-10-17T06:18:47.560Z,36.30
2018-10-17T06:21:16.238Z,37.00
2018-10-17T06:23:44.612Z,43.28
2018-10-17T06:26:13.004Z,45.65
2018-10-17T06:28:41.377Z,45.15
2018-10-17T06:31:10.136Z,32.42
2018-10-17T06:33:38.475Z,34.65
2018-10-17T06:36:07.101Z,36.25
2018-10-17T06:38:35.470Z,41.40
2018-10-17T06:41:03.991Z,48.90
2018-10-17T06:43:32.602Z,38.25
2018-10-17T06:46:01.021Z,47.62
2018-10-17T06:48:29.384Z,39.75
2018-10-17T06:50:57.785Z,48.17
2018-10-17T06:53:26.168Z,48.38
2018-10-17T06:55:54.550Z,48.40
2018-10-17T06:58:22.955Z,67.82
2018-10-17T07:00:51.325Z,52.03
2018-10-17T07:03:19.818Z,47.45
2018-10-17T07:05:48.199Z,64.15
2018-10-17T07:08:16.616Z,49.00
2018-10-17T07:10:44.994Z,45.05
2018-10-17T07:13:13.553Z,60.75
2018-10-17T07:15:42.018Z,54.88
2018-10-17T07:18:10.258Z,45.98
2018-10-17T07:20:38.862Z,37.63
2018-10-17T07:23:07.270Z,41.60
2018-10-17T07:25:35.632Z,46.03
2018-10-17T07:28:04.317Z,41.83
2018-10-17T07:30:32.685Z,53.40
2018-10-17T07:33:01.063Z,59.30
2018-10-17T07:35:29.509Z,49.55
2018-10-17T07:37:57.865Z,36.83
2018-10-17T07:40:26.533Z,37.30
2018-10-17T07:42:54.906Z,46.53
2018-10-17T07:45:23.293Z,47.70
2018-10-17T07:47:51.987Z,48.30
2018-10-17T07:50:20.374Z,51.77
2018-10-17T07:52:48.733Z,51.97
2018-10-17T07:55:17.454Z,45.00
2018-10-17T07:57:46.125Z,40.98
2018-10-17T08:00:15.064Z,50.30
2018-10-17T08:02:43.386Z,53.07
2018-10-17T08:05:11.781Z,51.40
2018-10-17T08:07:40.205Z,44.73
2018-10-17T08:10:09.759Z,48.87
2018-10-17T08:12:38.419Z,54.50
2018-10-17T08:15:07.960Z,50.93
2018-10-17T08:17:36.430Z,54.23
2018-10-17T08:20:05.522Z,50.30
2018-10-17T08:22:34.492Z,58.00
2018-10-17T08:25:02.871Z,56.03
2018-10-17T08:27:31.269Z,52.00
2018-10-17T08:29:59.986Z,67.90
2018-10-17T08:32:28.323Z,67.33
2018-10-17T08:34:56.716Z,76.60
2018-10-17T08:37:25.633Z,67.57
2018-10-17T08:39:53.697Z,73.07
2018-10-17T08:42:22.090Z,80.50
2018-10-17T08:44:50.502Z,79.87
2018-10-17T08:47:18.848Z,81.33
2018-10-17T08:49:47.238Z,88.90
2018-10-17T08:52:15.617Z,73.93
2018-10-17T08:54:43.990Z,69.60
2018-10-17T08:57:12.676Z,80.53
2018-10-17T08:59:41.045Z,84.00
2018-10-17T09:02:09.451Z,74.60
2018-10-17T09:04:37.929Z,82.50
2018-10-17T09:07:06.645Z,98.53
2018-10-17T09:09:35.036Z,89.57
2018-10-17T09:12:03.464Z,81.70
2018-10-17T09:14:31.828Z,75.33
2018-10-17T09:17:00.677Z,98.27
2018-10-17T09:19:29.532Z,96.20
2018-10-17T09:21:58.011Z,87.33
2018-10-17T09:24:26.171Z,77.77
2018-10-17T09:26:54.558Z,84.37
2018-10-17T09:29:22.938Z,70.70
2018-10-17T09:31:51.879Z,67.53
2018-10-17T09:34:20.335Z,86.13
2018-10-17T09:36:48.722Z,79.90
2018-10-17T09:39:17.124Z,80.13
2018-10-17T09:41:45.741Z,79.80
2018-10-17T09:44:14.132Z,86.97
2018-10-17T09:46:42.912Z,89.90
2018-10-17T09:49:11.505Z,80.27
2018-10-17T09:51:39.901Z,88.60
2018-10-17T09:54:08.330Z,84.23
2018-10-17T09:56:36.654Z,64.77
2018-10-17T09:59:05.328Z,59.67
2018-10-17T10:01:39.023Z,64.47
2018-10-17T10:04:07.842Z,53.90
2018-10-17T10:06:36.207Z,42.23
2018-10-17T10:09:06.596Z,39.80
2018-10-17T10:11:34.968Z,45.53
2018-10-17T10:14:03.661Z,67.60
2018-10-17T10:16:32.036Z,56.07
2018-10-17T10:19:00.678Z,54.73
2018-10-17T10:21:29.326Z,59.13
2018-10-17T10:23:58.087Z,52.47
2018-10-17T10:26:26.486Z,42.03
2018-10-17T10:28:55.110Z,49.50
2018-10-17T10:31:23.936Z,54.30
2018-10-17T10:33:52.770Z,46.70
2018-10-17T10:36:21.373Z,44.00
2018-10-17T10:40:19.221Z,48.30
2018-10-17T10:42:47.597Z,80.67
2018-10-17T10:45:16.479Z,46.67
2018-10-17T10:47:45.046Z,50.33
2018-10-17T10:50:13.740Z,55.27
2018-10-17T10:52:43.043Z,43.33
2018-10-17T10:55:11.390Z,48.80
2018-10-17T10:57:39.783Z,56.27
2018-10-17T11:00:08.293Z,43.63
2018-10-17T11:02:36.650Z,40.80
2018-10-17T11:05:05.353Z,37.00
2018-10-17T11:07:33.724Z,38.13
2018-10-17T11:10:02.127Z,41.30
2018-10-17T11:12:30.640Z,35.67
2018-10-17T11:14:59.213Z,50.07
2018-10-17T11:17:27.472Z,38.43
2018-10-17T11:19:55.844Z,36.40
2018-10-17T11:22:24.508Z,32.83
2018-10-17T11:24:53.082Z,39.10
2018-10-17T11:27:21.466Z,42.53
2018-10-17T11:29:49.831Z,35.83
2018-10-17T11:32:18.346Z,35.13
2018-10-17T11:34:46.702Z,38.70
2018-10-17T11:37:15.097Z,31.83
2018-10-17T11:39:43.755Z,44.43
2018-10-17T11:42:12.112Z,31.33
2018-10-17T11:44:40.460Z,35.77
2018-10-17T11:47:08.911Z,31.30
2018-10-17T11:49:37.272Z,30.93
2018-10-17T11:52:06.005Z,44.23
2018-10-17T11:54:34.393Z,33.20
2018-10-17T11:57:02.836Z,34.80
2018-10-17T11:59:31.211Z,30.07
2018-10-17T12:01:59.773Z,30.90
2018-10-17T12:04:28.433Z,38.97
2018-10-17T12:06:56.615Z,62.90
2018-10-17T12:09:25.005Z,31.83
2018-10-17T12:11:53.442Z,30.87
2018-10-17T12:14:21.975Z,34.23
2018-10-17T12:16:50.410Z,35.40
2018-10-17T12:19:19.049Z,30.70
2018-10-17T12:21:48.018Z,33.10
2018-10-17T12:24:16.499Z,35.40
2018-10-17T12:26:44.803Z,38.60
2018-10-17T12:29:13.191Z,28.93
2018-10-17T12:31:42.180Z,34.47
2018-10-17T12:34:10.552Z,33.87
2018-10-17T12:36:38.929Z,25.90
2018-10-17T12:39:09.919Z,36.27
2018-10-17T12:41:38.311Z,29.50
2018-10-17T12:44:06.975Z,22.63
2018-10-17T12:46:35.353Z,25.77
2018-10-17T12:49:03.803Z,25.23
2018-10-17T12:51:32.149Z,27.47
2018-10-17T12:54:00.546Z,36.40
2018-10-17T12:56:28.925Z,23.97
2018-10-17T12:58:57.349Z,25.97
2018-10-17T13:01:25.708Z,35.53
2018-10-17T13:03:54.177Z,23.53
2018-10-17T13:06:22.584Z,25.70
2018-10-17T13:08:51.012Z,27.57
2018-10-17T13:11:19.694Z,20.93
2018-10-17T13:13:48.008Z,20.10
2018-10-17T13:16:16.429Z,20.83
2018-10-17T13:18:44.827Z,18.57
2018-10-17T13:21:13.439Z,22.30
2018-10-17T13:23:41.839Z,29.30
2018-10-17T13:26:10.218Z,28.37
2018-10-17T13:28:38.602Z,20.23
2018-10-17T13:31:07.313Z,29.60
2018-10-17T13:33:35.690Z,22.13
2018-10-17T13:36:04.083Z,23.40
2018-10-17T13:38:32.460Z,18.40
2018-10-17T13:41:01.130Z,28.23
2018-10-17T13:43:29.478Z,26.00
2018-10-17T13:45:57.905Z,19.37
2018-10-17T13:48:26.280Z,21.90
2018-10-17T13:50:54.643Z,17.27
2018-10-17T13:53:23.339Z,17.43
2018-10-17T13:55:51.730Z,25.37
2018-10-17T13:58:20.153Z,32.03
2018-10-17T14:00:48.526Z,29.03
2018-10-17T14:03:16.886Z,22.63
2018-10-17T14:05:45.285Z,22.13
2018-10-17T14:08:13.679Z,27.50
2018-10-17T14:10:42.021Z,19.77
2018-10-17T14:13:10.692Z,23.40
2018-10-17T14:15:39.075Z,37.43
2018-10-17T14:18:07.459Z,31.43
2018-10-17T14:20:35.901Z,27.53
2018-10-17T14:23:04.316Z,23.50
2018-10-17T14:25:32.676Z,23.03
2018-10-17T14:28:01.062Z,30.70
2018-10-17T14:30:30.025Z,24.63
2018-10-17T14:32:58.643Z,28.10
2018-10-17T14:35:26.996Z,19.33
2018-10-17T14:37:55.445Z,22.93
2018-10-17T14:40:23.761Z,18.60
2018-10-17T14:42:52.105Z,16.23
2018-10-17T14:45:20.502Z,15.57
2018-10-17T14:47:48.876Z,15.47
2018-10-17T14:50:17.295Z,23.90
2018-10-17T14:52:45.680Z,19.07
2018-10-17T14:55:14.075Z,18.03
2018-10-17T14:57:42.469Z,121.17
2018-10-17T15:00:13.604Z,41.33
2018-10-17T15:02:42.366Z,22.47
2018-10-17T15:05:11.181Z,26.00
2018-10-17T15:07:40.183Z,16.00
2018-10-17T15:10:08.823Z,29.27
2018-10-17T15:12:37.641Z,15.53
2018-10-17T15:15:07.714Z,23.80
2018-10-17T15:17:36.026Z,16.03
2018-10-17T15:20:04.854Z,30.73
2018-10-17T15:22:33.270Z,41.17
2018-10-17T15:25:01.648Z,29.40
2018-10-17T15:27:30.031Z,26.53
2018-10-17T15:29:58.479Z,30.93
2018-10-17T15:32:26.854Z,23.20
2018-10-17T15:34:55.233Z,25.10
2018-10-17T15:37:23.616Z,20.60
2018-10-17T15:39:52.279Z,26.83
2018-10-17T15:42:20.778Z,26.37
2018-10-17T15:44:49.242Z,22.47
2018-10-17T15:47:17.662Z,35.57
2018-10-17T15:49:46.361Z,21.50
2018-10-17T15:52:14.740Z,29.80
2018-10-17T15:54:43.105Z,60.50
2018-10-17T15:57:11.612Z,21.73
2018-10-17T15:59:39.927Z,27.17
2018-10-17T16:02:08.322Z,22.07
2018-10-17T16:04:36.728Z,100.37
2018-10-17T16:07:05.657Z,42.43
2018-10-17T16:09:34.036Z,103.73
2018-10-17T16:12:02.419Z,34.23
2018-10-17T16:14:30.814Z,22.57
2018-10-17T16:16:59.194Z,26.33
2018-10-17T16:19:27.555Z,22.43
2018-10-17T16:21:55.966Z,23.27
2018-10-17T16:24:24.633Z,19.33
2018-10-17T16:26:53.003Z,46.23
2018-10-17T16:29:21.402Z,74.43
2018-10-17T16:31:49.788Z,31.53
2018-10-17T16:34:18.193Z,26.93
2018-10-17T16:36:46.607Z,22.57
2018-10-17T16:39:14.968Z,19.00
2018-10-17T16:41:43.928Z,16.60
2018-10-17T16:44:12.387Z,48.53
2018-10-17T16:46:40.737Z,25.60
2018-10-17T16:49:09.112Z,55.90
2018-10-17T16:51:37.797Z,95.40
2018-10-17T16:54:06.187Z,64.90
2018-10-17T16:56:34.596Z,45.97
2018-10-17T16:59:03.497Z,40.30
2018-10-17T17:01:31.851Z,43.13
2018-10-17T17:04:00.224Z,39.43
2018-10-17T17:06:28.931Z,27.63
2018-10-17T17:08:57.353Z,22.10
2018-10-17T17:11:26.346Z,26.50
2018-10-17T17:13:54.743Z,22.37
2018-10-17T17:16:23.163Z,23.90
2018-10-17T17:18:51.758Z,23.80
2018-10-17T17:21:20.148Z,23.30
2018-10-17T17:23:48.548Z,17.90
2018-10-17T17:26:16.929Z,26.40
2018-10-17T17:28:45.580Z,28.00
2018-10-17T17:31:14.252Z,30.47
2018-10-17T17:33:42.625Z,34.43
2018-10-17T17:36:11.108Z,46.47
2018-10-17T17:38:39.436Z,39.33
2018-10-17T17:41:07.840Z,25.30
2018-10-17T17:43:36.240Z,26.97
2018-10-17T17:46:04.700Z,38.53
2018-10-17T17:48:33.044Z,30.03
2018-10-17T17:51:01.450Z,26.33
2018-10-17T17:53:29.815Z,35.93
2018-10-17T17:55:58.218Z,34.40
2018-10-17T17:58:27.343Z,32.97
2018-10-17T18:00:55.662Z,22.53
2018-10-17T18:03:24.057Z,31.80
2018-10-17T18:07:22.127Z,31.93
2018-10-17T18:09:50.516Z,28.60
2018-10-17T18:12:18.894Z,38.80
2018-10-17T18:14:47.298Z,31.87
2018-10-17T18:17:16.045Z,30.60
2018-10-17T18:19:44.455Z,34.93
2018-10-17T18:22:13.046Z,40.50
2018-10-17T18:24:43.285Z,34.83
2018-10-17T18:27:11.658Z,33.57
2018-10-17T18:29:40.100Z,31.13
2018-10-17T18:32:08.473Z,30.80
2018-10-17T18:34:36.891Z,30.57
2018-10-17T18:37:05.695Z,28.37
2018-10-17T18:39:34.081Z,31.80
2018-10-17T18:42:02.474Z,34.87
2018-10-17T18:44:30.878Z,36.93
2018-10-17T18:46:59.259Z,34.23
2018-10-17T18:49:27.801Z,33.30
2018-10-17T18:51:56.436Z,30.87
2018-10-17T18:54:24.819Z,27.90
2018-10-17T18:56:53.266Z,32.13
2018-10-17T18:59:21.682Z,29.00
2018-10-17T19:01:50.078Z,37.67
2018-10-17T19:04:18.478Z,30.50
2018-10-17T19:06:46.877Z,31.00
2018-10-17T19:09:15.547Z,31.37
2018-10-17T19:11:44.065Z,29.43
2018-10-17T19:14:12.478Z,36.67
2018-10-17T19:16:40.897Z,33.20
2018-10-17T19:19:09.765Z,33.77
2018-10-17T19:21:38.188Z,33.67
2018-10-17T19:24:06.911Z,33.07
2018-10-17T19:26:35.568Z,33.10
2018-10-17T19:29:04.332Z,35.03
2018-10-17T19:31:32.715Z,41.97
2018-10-17T19:34:01.069Z,53.97
2018-10-17T19:36:29.456Z,44.30
2018-10-17T19:38:58.158Z,49.87
2018-10-17T19:41:26.519Z,60.33
2018-10-17T19:43:55.394Z,56.67
2018-10-17T19:46:23.780Z,40.43
2018-10-17T19:48:52.169Z,36.63
2018-10-17T19:51:20.563Z,40.97
2018-10-17T19:53:48.983Z,34.10
2018-10-17T19:56:17.361Z,35.27
2018-10-17T19:58:46.062Z,34.17
2018-10-17T20:01:14.986Z,32.67
2018-10-17T20:03:43.348Z,33.43
2018-10-17T20:06:11.744Z,39.10
2018-10-17T20:08:40.123Z,31.97
2018-10-17T20:11:08.482Z,44.33
2018-10-17T20:13:36.881Z,39.80
2018-10-17T20:16:05.488Z,46.63
2018-10-17T20:18:33.851Z,36.13
2018-10-17T20:21:02.911Z,39.77
2018-10-17T20:23:31.256Z,35.80
2018-10-17T20:25:59.762Z,41.33
2018-10-17T20:28:28.474Z,40.07
2018-10-17T20:30:56.874Z,37.20
2018-10-17T20:33:25.266Z,37.77
2018-10-17T20:35:53.656Z,38.10
2018-10-17T20:38:22.036Z,41.90
2018-10-17T20:40:50.664Z,40.13
2018-10-17T20:43:19.081Z,41.97
2018-10-17T20:45:47.448Z,42.07
2018-10-17T20:48:15.839Z,47.13
2018-10-17T20:50:44.835Z,44.67
2018-10-17T20:53:13.197Z,43.97
2018-10-17T20:55:41.600Z,42.83
2018-10-17T20:58:10.042Z,44.07
2018-10-17T21:00:38.369Z,43.33
2018-10-17T21:03:06.783Z,44.87
2018-10-17T21:05:35.457Z,38.80
2018-10-17T21:08:03.903Z,44.13
2018-10-17T21:10:32.240Z,39.87
2018-10-17T21:13:00.873Z,47.03
2018-10-17T21:15:29.278Z,38.20
2018-10-17T21:17:57.663Z,40.17
2018-10-17T21:20:26.043Z,46.23
2018-10-17T21:22:54.412Z,48.23
2018-10-17T21:25:22.813Z,53.40
2018-10-17T21:27:51.196Z,46.03
2018-10-17T21:30:19.564Z,49.30
2018-10-17T21:32:47.935Z,43.43
2018-10-17T21:35:16.358Z,49.80
2018-10-17T21:37:45.322Z,42.77
2018-10-17T21:40:13.759Z,47.00
2018-10-17T21:42:42.156Z,39.90
2018-10-17T21:45:10.708Z,50.03
2018-10-17T21:47:39.090Z,55.37
2018-10-17T21:50:07.739Z,52.97
2018-10-17T21:52:36.129Z,48.23
2018-10-17T21:55:04.823Z,51.20
2018-10-17T21:57:33.227Z,45.67
2018-10-17T22:00:01.609Z,54.00
2018-10-17T22:02:30.250Z,49.43
2018-10-17T22:04:58.682Z,48.20
2018-10-17T22:07:27.048Z,44.83
2018-10-17T22:09:55.471Z,52.07
2018-10-17T22:12:24.129Z,46.33
2018-10-17T22:14:52.514Z,54.33
2018-10-17T22:17:26.191Z,48.73
2018-10-17T22:19:54.573Z,41.47
2018-10-17T22:22:23.262Z,50.13
2018-10-17T22:24:52.072Z,47.07
2018-10-17T22:27:20.642Z,45.47
2018-10-17T22:29:49.245Z,49.43
2018-10-17T22:32:17.650Z,50.57
2018-10-17T22:34:46.189Z,45.73
2018-10-17T22:37:14.555Z,48.67
2018-10-17T22:39:42.945Z,46.77
2018-10-17T22:42:11.335Z,38.30
2018-10-17T22:47:04.714Z,47.60
2018-10-17T22:49:33.103Z,43.33
2018-10-17T22:52:01.472Z,49.17
2018-10-17T22:54:29.909Z,42.73
2018-10-17T22:56:58.397Z,52.33
2018-10-17T22:59:26.893Z,45.13
2018-10-17T23:01:55.347Z,56.77
2018-10-17T23:04:23.706Z,51.27
2018-10-17T23:06:52.136Z,45.30
2018-10-17T23:09:20.522Z,37.97
2018-10-17T23:11:48.888Z,42.37
2018-10-17T23:14:17.344Z,38.23
2018-10-17T23:16:46.000Z,39.33
2018-10-17T23:19:14.351Z,44.33
2018-10-17T23:21:42.723Z,39.23
2018-10-17T23:24:11.128Z,41.53
2018-10-17T23:26:39.805Z,58.47
2018-10-17T23:29:08.166Z,51.80
2018-10-17T23:31:36.874Z,50.23
2018-10-17T23:34:05.439Z,47.60
2018-10-17T23:36:33.799Z,40.53
2018-10-17T23:39:02.201Z,57.43
2018-10-17T23:41:30.575Z,38.90
2018-10-17T23:43:58.961Z,40.30
2018-10-17T23:46:27.523Z,43.27
2018-10-17T23:48:55.887Z,46.03
2018-10-17T23:51:24.511Z,41.17
2018-10-17T23:53:52.951Z,61.43
2018-10-17T23:56:21.283Z,72.33
2018-10-17T23:58:49.667Z,65.27
